KLM651 EDDH-EGLL
Flight info
| Callsign | KLM651 |
|---|---|
| Flight time | N/A |
| Altitude | 40000 |
| Route | WSN5G/33 WSN N125 ITMIZ DCT ABNED L980 LOGAN |
| Aircraft | B744/H-SDE3FGHIM1M2RWXY/LB1 |
Departure
| Time | N/A |
|---|---|
| Airport | Hamburg Helmut Schmidt Airport (EDDH) |
Arrival
| Time | 2026-05-05 14:41 |
|---|---|
| Airport | London Heathrow Airport (EGLL) |
| Time | Latitude | Longitude | Altitude | Speed | Heading |
|---|---|---|---|---|---|
| 2026-05-05 13:58 | 52.22250 | 4.46612 | 39115 ft | 400 kts | 245° |
| 2026-05-05 13:59 | 52.16510 | 4.26007 | 39215 ft | 426 kts | 247° |
| 2026-05-05 14:00 | 52.10717 | 4.04986 | 39327 ft | 456 kts | 244° |
| 2026-05-05 14:01 | 52.07293 | 3.93189 | 39360 ft | 472 kts | 244° |
| 2026-05-05 14:01 | 52.05901 | 3.88407 | 39371 ft | 476 kts | 244° |
| 2026-05-05 14:02 | 52.03109 | 3.78833 | 39369 ft | 484 kts | 244° |
| 2026-05-05 14:02 | 52.00496 | 3.69896 | 39353 ft | 472 kts | 244° |
| 2026-05-05 14:03 | 51.99118 | 3.65189 | 39266 ft | 450 kts | 244° |
| 2026-05-05 14:03 | 51.97870 | 3.60917 | 39196 ft | 428 kts | 244° |
| 2026-05-05 14:03 | 51.96767 | 3.57145 | 39123 ft | 408 kts | 244° |
| 2026-05-05 14:03 | 51.95733 | 3.53612 | 39043 ft | 389 kts | 244° |
| 2026-05-05 14:04 | 51.94779 | 3.50362 | 38968 ft | 371 kts | 244° |
| 2026-05-05 14:04 | 51.93481 | 3.45936 | 38882 ft | 355 kts | 244° |
| 2026-05-05 14:04 | 51.91465 | 3.39102 | 38929 ft | 371 kts | 244° |
| 2026-05-05 14:05 | 51.89360 | 3.31930 | 39015 ft | 389 kts | 243° |
| 2026-05-05 14:05 | 51.87156 | 3.24542 | 39077 ft | 407 kts | 243° |
| 2026-05-05 14:06 | 51.84874 | 3.16607 | 39087 ft | 425 kts | 251° |
| 2026-05-05 14:06 | 51.84315 | 3.12387 | 39122 ft | 435 kts | 263° |
| 2026-05-05 14:06 | 51.84164 | 3.08167 | 39191 ft | 434 kts | 265° |
| 2026-05-05 14:07 | 51.83970 | 3.03852 | 39064 ft | 420 kts | 263° |
| 2026-05-05 14:07 | 51.83718 | 2.99587 | 38655 ft | 411 kts | 263° |
| 2026-05-05 14:07 | 51.83506 | 2.95788 | 38153 ft | 404 kts | 263° |
| 2026-05-05 14:07 | 51.83231 | 2.91351 | 37650 ft | 401 kts | 262° |
| 2026-05-05 14:08 | 51.82710 | 2.83219 | 37695 ft | 414 kts | 262° |
| 2026-05-05 14:08 | 51.82163 | 2.75040 | 37543 ft | 437 kts | 262° |
| 2026-05-05 14:09 | 51.81856 | 2.70522 | 37189 ft | 457 kts | 262° |
| 2026-05-05 14:09 | 51.81544 | 2.66021 | 36776 ft | 475 kts | 262° |
| 2026-05-05 14:09 | 51.80873 | 2.56165 | 36861 ft | 485 kts | 262° |
| 2026-05-05 14:10 | 51.80543 | 2.51536 | 37002 ft | 484 kts | 262° |
| 2026-05-05 14:10 | 51.80194 | 2.46466 | 37141 ft | 471 kts | 262° |
| 2026-05-05 14:10 | 51.79878 | 2.42023 | 37721 ft | 454 kts | 262° |
| 2026-05-05 14:10 | 51.79578 | 2.37844 | 38461 ft | 442 kts | 262° |
| 2026-05-05 14:11 | 51.79213 | 2.32883 | 39150 ft | 436 kts | 262° |
| 2026-05-05 14:11 | 51.78893 | 2.28454 | 39558 ft | 436 kts | 262° |
| 2026-05-05 14:11 | 51.78582 | 2.24059 | 39803 ft | 440 kts | 262° |
| 2026-05-05 14:11 | 51.78287 | 2.19679 | 39874 ft | 448 kts | 263° |
| 2026-05-05 14:12 | 51.78041 | 2.15125 | 39415 ft | 468 kts | 264° |
| 2026-05-05 14:12 | 51.77766 | 2.10411 | 38851 ft | 473 kts | 263° |
| 2026-05-05 14:12 | 51.77491 | 2.05771 | 38361 ft | 466 kts | 263° |
| 2026-05-05 14:12 | 51.77215 | 2.00883 | 37806 ft | 457 kts | 263° |
| 2026-05-05 14:13 | 51.76928 | 1.96110 | 37249 ft | 447 kts | 263° |
| 2026-05-05 14:13 | 51.76652 | 1.91415 | 36647 ft | 440 kts | 262° |
| 2026-05-05 14:13 | 51.76373 | 1.86854 | 36148 ft | 438 kts | 262° |
| 2026-05-05 14:13 | 51.76130 | 1.82809 | 35765 ft | 446 kts | 262° |
| 2026-05-05 14:14 | 51.75839 | 1.77980 | 35330 ft | 450 kts | 262° |
| 2026-05-05 14:14 | 51.75555 | 1.73443 | 34800 ft | 447 kts | 262° |
| 2026-05-05 14:14 | 51.75274 | 1.68918 | 34163 ft | 438 kts | 262° |
| 2026-05-05 14:14 | 51.74980 | 1.64501 | 33531 ft | 438 kts | 261° |
| 2026-05-05 14:15 | 51.74696 | 1.60183 | 32903 ft | 431 kts | 262° |
| 2026-05-05 14:15 | 51.74428 | 1.55903 | 32263 ft | 431 kts | 262° |
| 2026-05-05 14:15 | 51.74148 | 1.51521 | 31630 ft | 426 kts | 262° |
| 2026-05-05 14:15 | 51.73879 | 1.47235 | 30986 ft | 418 kts | 262° |
| 2026-05-05 14:16 | 51.73609 | 1.43098 | 30317 ft | 418 kts | 261° |
| 2026-05-05 14:16 | 51.73332 | 1.38936 | 29658 ft | 414 kts | 262° |
| 2026-05-05 14:16 | 51.73073 | 1.34992 | 29012 ft | 406 kts | 262° |
| 2026-05-05 14:16 | 51.72808 | 1.31114 | 28386 ft | 408 kts | 261° |
| 2026-05-05 14:17 | 51.72551 | 1.27243 | 27773 ft | 404 kts | 262° |
| 2026-05-05 14:17 | 51.72299 | 1.23440 | 27158 ft | 396 kts | 262° |
| 2026-05-05 14:17 | 51.72043 | 1.19651 | 26522 ft | 391 kts | 262° |
| 2026-05-05 14:17 | 51.71788 | 1.15912 | 25911 ft | 393 kts | 262° |
| 2026-05-05 14:18 | 51.71531 | 1.12165 | 25299 ft | 387 kts | 262° |
| 2026-05-05 14:18 | 51.71286 | 1.08506 | 24692 ft | 382 kts | 262° |
| 2026-05-05 14:18 | 51.71037 | 1.04832 | 24101 ft | 384 kts | 263° |
| 2026-05-05 14:18 | 51.70790 | 1.01176 | 23521 ft | 378 kts | 263° |
| 2026-05-05 14:19 | 51.70683 | 0.99590 | 23270 ft | 375 kts | 263° |
| 2026-05-05 14:19 | 51.70454 | 0.96099 | 22706 ft | 370 kts | 263° |
| 2026-05-05 14:19 | 51.70222 | 0.92614 | 22142 ft | 372 kts | 263° |
| 2026-05-05 14:19 | 51.69970 | 0.89095 | 21588 ft | 367 kts | 263° |
| 2026-05-05 14:20 | 51.69730 | 0.85625 | 21027 ft | 366 kts | 263° |
| 2026-05-05 14:20 | 51.69484 | 0.82117 | 20478 ft | 363 kts | 263° |
| 2026-05-05 14:20 | 51.69240 | 0.78685 | 19929 ft | 357 kts | 263° |
| 2026-05-05 14:20 | 51.69000 | 0.75286 | 19388 ft | 360 kts | 263° |
| 2026-05-05 14:21 | 51.68753 | 0.71849 | 18853 ft | 355 kts | 264° |
| 2026-05-05 14:21 | 51.68510 | 0.68374 | 18299 ft | 358 kts | 264° |
| 2026-05-05 14:21 | 51.68265 | 0.64924 | 17771 ft | 355 kts | 264° |
| 2026-05-05 14:21 | 51.68013 | 0.61525 | 17253 ft | 349 kts | 264° |
| 2026-05-05 14:22 | 51.67774 | 0.58130 | 16729 ft | 345 kts | 264° |
| 2026-05-05 14:22 | 51.67532 | 0.54805 | 16278 ft | 344 kts | 264° |
| 2026-05-05 14:22 | 51.67298 | 0.51547 | 15957 ft | 341 kts | 264° |
| 2026-05-05 14:22 | 51.67065 | 0.48219 | 15776 ft | 339 kts | 264° |
| 2026-05-05 14:23 | 51.66824 | 0.44943 | 15650 ft | 339 kts | 264° |
| 2026-05-05 14:23 | 51.66582 | 0.41672 | 15543 ft | 340 kts | 264° |
| 2026-05-05 14:23 | 51.66341 | 0.38355 | 15422 ft | 341 kts | 264° |
| 2026-05-05 14:23 | 51.66088 | 0.34970 | 15285 ft | 341 kts | 263° |
| 2026-05-05 14:24 | 51.65848 | 0.31739 | 15156 ft | 341 kts | 263° |
| 2026-05-05 14:24 | 51.65602 | 0.28431 | 14990 ft | 340 kts | 263° |
| 2026-05-05 14:24 | 51.65361 | 0.25223 | 14875 ft | 339 kts | 263° |
| 2026-05-05 14:24 | 51.65117 | 0.21975 | 14807 ft | 337 kts | 263° |
| 2026-05-05 14:25 | 51.64867 | 0.18678 | 14769 ft | 335 kts | 263° |
| 2026-05-05 14:25 | 51.64620 | 0.15394 | 14709 ft | 332 kts | 264° |
| 2026-05-05 14:25 | 51.64421 | 0.12162 | 14682 ft | 314 kts | 266° |
| 2026-05-05 14:25 | 51.64268 | 0.09097 | 14601 ft | 296 kts | 265° |
| 2026-05-05 14:26 | 51.64099 | 0.06196 | 14515 ft | 279 kts | 266° |
| 2026-05-05 14:26 | 51.63953 | 0.03491 | 14465 ft | 272 kts | 266° |
| 2026-05-05 14:26 | 51.63806 | 0.00830 | 14471 ft | 268 kts | 266° |
| 2026-05-05 14:26 | 51.63658 | -0.01803 | 14536 ft | 267 kts | 266° |
| 2026-05-05 14:27 | 51.63512 | -0.04402 | 14496 ft | 253 kts | 266° |
| 2026-05-05 14:27 | 51.63375 | -0.06846 | 14216 ft | 247 kts | 266° |
| 2026-05-05 14:27 | 51.63237 | -0.09270 | 13836 ft | 245 kts | 266° |
| 2026-05-05 14:27 | 51.63097 | -0.11747 | 13420 ft | 245 kts | 266° |
| 2026-05-05 14:28 | 51.62962 | -0.14158 | 12994 ft | 245 kts | 266° |
| 2026-05-05 14:28 | 51.62822 | -0.16601 | 12538 ft | 247 kts | 266° |
| 2026-05-05 14:28 | 51.62680 | -0.19077 | 12050 ft | 250 kts | 266° |
| 2026-05-05 14:28 | 51.62539 | -0.21582 | 11507 ft | 255 kts | 266° |
| 2026-05-05 14:29 | 51.62396 | -0.24106 | 10946 ft | 261 kts | 266° |
| 2026-05-05 14:29 | 51.62245 | -0.26730 | 10333 ft | 268 kts | 266° |
| 2026-05-05 14:29 | 51.62094 | -0.29338 | 9914 ft | 266 kts | 266° |
| 2026-05-05 14:29 | 51.61943 | -0.31944 | 9535 ft | 263 kts | 266° |
| 2026-05-05 14:30 | 51.61789 | -0.34542 | 9151 ft | 261 kts | 266° |
| 2026-05-05 14:30 | 51.61635 | -0.37100 | 8771 ft | 259 kts | 266° |
| 2026-05-05 14:30 | 51.61483 | -0.39667 | 8381 ft | 257 kts | 266° |
| 2026-05-05 14:30 | 51.61329 | -0.42247 | 7984 ft | 256 kts | 266° |
| 2026-05-05 14:31 | 51.61177 | -0.44772 | 7582 ft | 255 kts | 266° |
| 2026-05-05 14:31 | 51.61028 | -0.47262 | 7235 ft | 251 kts | 266° |
| 2026-05-05 14:31 | 51.60877 | -0.49764 | 7043 ft | 246 kts | 266° |
| 2026-05-05 14:31 | 51.60733 | -0.52176 | 6986 ft | 249 kts | 266° |
| 2026-05-05 14:32 | 51.60587 | -0.54637 | 6976 ft | 253 kts | 266° |
| 2026-05-05 14:32 | 51.60437 | -0.57144 | 6986 ft | 257 kts | 266° |
| 2026-05-05 14:32 | 51.60281 | -0.59719 | 7006 ft | 260 kts | 266° |
| 2026-05-05 14:32 | 51.60121 | -0.62367 | 7026 ft | 264 kts | 266° |
| 2026-05-05 14:33 | 51.59960 | -0.65004 | 7043 ft | 267 kts | 266° |
| 2026-05-05 14:33 | 51.59793 | -0.67713 | 6863 ft | 275 kts | 265° |
| 2026-05-05 14:33 | 51.59621 | -0.70491 | 6598 ft | 276 kts | 265° |
| 2026-05-05 14:33 | 51.59444 | -0.73252 | 6393 ft | 266 kts | 264° |
| 2026-05-05 14:34 | 51.58996 | -0.75836 | 5903 ft | 270 kts | 246° |
| 2026-05-05 14:34 | 51.58020 | -0.78092 | 5363 ft | 273 kts | 225° |
| 2026-05-05 14:34 | 51.56622 | -0.79716 | 4836 ft | 276 kts | 206° |
| 2026-05-05 14:34 | 51.54998 | -0.80513 | 4312 ft | 277 kts | 186° |
| 2026-05-05 14:35 | 51.53278 | -0.80422 | 3835 ft | 272 kts | 166° |
| 2026-05-05 14:35 | 51.51751 | -0.79524 | 3264 ft | 250 kts | 145° |
| 2026-05-05 14:35 | 51.50623 | -0.77926 | 3143 ft | 227 kts | 124° |
| 2026-05-05 14:35 | 51.49835 | -0.76101 | 3027 ft | 214 kts | 119° |
| 2026-05-05 14:36 | 51.49140 | -0.74277 | 2968 ft | 204 kts | 116° |
| 2026-05-05 14:36 | 51.48537 | -0.72494 | 2987 ft | 195 kts | 112° |
| 2026-05-05 14:36 | 51.48031 | -0.70686 | 2871 ft | 193 kts | 105° |
| 2026-05-05 14:36 | 51.47779 | -0.68884 | 2693 ft | 182 kts | 92° |
| 2026-05-05 14:37 | 51.47715 | -0.67100 | 2407 ft | 171 kts | 87° |
| 2026-05-05 14:37 | 51.47694 | -0.65428 | 2125 ft | 164 kts | 86° |
| 2026-05-05 14:37 | 51.47687 | -0.63853 | 1979 ft | 155 kts | 85° |
| 2026-05-05 14:37 | 51.47689 | -0.62353 | 1865 ft | 152 kts | 85° |
| 2026-05-05 14:38 | 51.47696 | -0.60819 | 1663 ft | 151 kts | 85° |
| 2026-05-05 14:38 | 51.47702 | -0.59318 | 1459 ft | 147 kts | 85° |
| 2026-05-05 14:38 | 51.47710 | -0.57896 | 1272 ft | 142 kts | 85° |
| 2026-05-05 14:38 | 51.47718 | -0.56509 | 1089 ft | 141 kts | 86° |
| 2026-05-05 14:39 | 51.47725 | -0.55168 | 911 ft | 141 kts | 86° |
| 2026-05-05 14:39 | 51.47731 | -0.53825 | 748 ft | 138 kts | 86° |
| 2026-05-05 14:39 | 51.47745 | -0.52473 | 569 ft | 141 kts | 86° |
| 2026-05-05 14:39 | 51.47743 | -0.51131 | 414 ft | 142 kts | 88° |
| 2026-05-05 14:40 | 51.47731 | -0.49798 | 287 ft | 142 kts | 87° |
| 2026-05-05 14:40 | 51.47748 | -0.48429 | 117 ft | 141 kts | 87° |
| 2026-05-05 14:40 | 51.47754 | -0.47130 | 90 ft | 125 kts | 88° |
| 2026-05-05 14:40 | 51.47763 | -0.46195 | 86 ft | 66 kts | 88° |
| 2026-05-05 14:41 | 51.47765 | -0.45530 | 88 ft | 44 kts | 86° |
| 2026-05-05 14:41 | 51.47762 | -0.45110 | 94 ft | 38 kts | 90° |
| 2026-05-05 14:41 | 51.47719 | -0.44865 | 94 ft | 22 kts | 146° |
| 2026-05-05 14:41 | 51.47645 | -0.44779 | 94 ft | 4 kts | 141° |
| 2026-05-05 14:42 | 51.47636 | -0.44769 | 94 ft | 0 kts | 141° |
| 2026-05-05 14:42 | 51.47635 | -0.44767 | 94 ft | 1 kts | 149° |
| 2026-05-05 14:42 | 51.47623 | -0.44772 | 94 ft | 0 kts | 225° |
| 2026-05-05 14:42 | 51.47619 | -0.44781 | 94 ft | 5 kts | 244° |
| 2026-05-05 14:43 | 51.47616 | -0.44833 | 95 ft | 6 kts | 266° |
| 2026-05-05 14:43 | 51.47611 | -0.44859 | 95 ft | 2 kts | 249° |
| 2026-05-05 14:43 | 51.47602 | -0.44927 | 95 ft | 12 kts | 263° |
| 2026-05-05 14:43 | 51.47601 | -0.45076 | 95 ft | 17 kts | 266° |
| 2026-05-05 14:44 | 51.47598 | -0.45203 | 93 ft | 9 kts | 268° |
| 2026-05-05 14:44 | 51.47596 | -0.45315 | 92 ft | 13 kts | 268° |
| 2026-05-05 14:44 | 51.47588 | -0.45447 | 90 ft | 11 kts | 222° |
| 2026-05-05 14:44 | 51.47530 | -0.45449 | 91 ft | 7 kts | 149° |
| 2026-05-05 14:45 | 51.47510 | -0.45331 | 94 ft | 13 kts | 87° |
| 2026-05-05 14:45 | 51.47510 | -0.45197 | 94 ft | 13 kts | 90° |
| 2026-05-05 14:45 | 51.47508 | -0.45071 | 96 ft | 11 kts | 90° |
| 2026-05-05 14:45 | 51.47510 | -0.44934 | 97 ft | 17 kts | 89° |
| 2026-05-05 14:46 | 51.47513 | -0.44735 | 95 ft | 21 kts | 90° |
| 2026-05-05 14:46 | 51.47494 | -0.44589 | 94 ft | 12 kts | 138° |
| 2026-05-05 14:46 | 51.47427 | -0.44564 | 95 ft | 10 kts | 177° |
| 2026-05-05 14:46 | 51.47356 | -0.44561 | 97 ft | 14 kts | 179° |
| 2026-05-05 14:47 | 51.47238 | -0.44557 | 97 ft | 23 kts | 178° |
| 2026-05-05 14:47 | 51.47067 | -0.44555 | 100 ft | 30 kts | 179° |
| 2026-05-05 14:47 | 51.46881 | -0.44555 | 98 ft | 27 kts | 180° |
| 2026-05-05 14:47 | 51.46782 | -0.44555 | 95 ft | 4 kts | 179° |
| 2026-05-05 14:48 | 51.46737 | -0.44555 | 94 ft | 12 kts | 179° |
| 2026-05-05 14:48 | 51.46668 | -0.44610 | 93 ft | 11 kts | 225° |
| 2026-05-05 14:48 | 51.46636 | -0.44663 | 93 ft | 6 kts | 227° |
| 2026-05-05 14:48 | 51.46607 | -0.44716 | 92 ft | 8 kts | 229° |
| 2026-05-05 14:49 | 51.46563 | -0.44795 | 91 ft | 11 kts | 227° |
| 2026-05-05 14:49 | 51.46509 | -0.44878 | 91 ft | 12 kts | 217° |
| 2026-05-05 14:49 | 51.46445 | -0.44959 | 90 ft | 13 kts | 220° |
| 2026-05-05 14:49 | 51.46396 | -0.45025 | 89 ft | 4 kts | 219° |
| 2026-05-05 14:50 | 51.46379 | -0.45048 | 89 ft | 0 kts | 219° |
| 2026-05-05 14:50 | 51.46359 | -0.45075 | 88 ft | 11 kts | 221° |
| 2026-05-05 14:50 | 51.46298 | -0.45168 | 87 ft | 9 kts | 223° |
| 2026-05-05 14:50 | 51.46253 | -0.45232 | 86 ft | 9 kts | 221° |
| 2026-05-05 14:51 | 51.46209 | -0.45295 | 85 ft | 10 kts | 221° |
| 2026-05-05 14:51 | 51.46148 | -0.45373 | 84 ft | 13 kts | 196° |
| 2026-05-05 14:51 | 51.46079 | -0.45340 | 84 ft | 10 kts | 147° |
| 2026-05-05 14:51 | 51.46022 | -0.45322 | 84 ft | 9 kts | 180° |
| 2026-05-05 14:52 | 51.45957 | -0.45328 | 84 ft | 10 kts | 180° |
| 2026-05-05 14:52 | 51.45858 | -0.45327 | 84 ft | 20 kts | 179° |
| 2026-05-05 14:52 | 51.45731 | -0.45308 | 84 ft | 19 kts | 148° |
| 2026-05-05 14:52 | 51.45670 | -0.45151 | 85 ft | 19 kts | 92° |
| 2026-05-05 14:53 | 51.45685 | -0.44982 | 88 ft | 16 kts | 68° |
| 2026-05-05 14:53 | 51.45719 | -0.44874 | 90 ft | 7 kts | 60° |
| 2026-05-05 14:53 | 51.45732 | -0.44826 | 91 ft | 7 kts | 55° |
| 2026-05-05 14:53 | 51.45777 | -0.44829 | 91 ft | 7 kts | 331° |
| 2026-05-05 14:54 | 51.45794 | -0.44845 | 91 ft | 1 kts | 331° |
| 2026-05-05 14:54 | 51.45807 | -0.44856 | 90 ft | 3 kts | 331° |
| 2026-05-05 14:54 | 51.45811 | -0.44860 | 90 ft | 0 kts | 330° |